Terminal Aerodrome Forecast
Issued by NWS

Current Version | Previous Version | Text Only | Print | Product List | Glossary On
Versions: 1 2 3 4 5 6 7 8 9 10 11 12 13 14 15 16
256
FTUS41 KCAR 221624 AAB
TAFPQI
TAF AMD
KPQI 221624Z 2216/2312 30010G15KT P6SM FEW050
     FM230000 29004KT P6SM SCT250=

USA.gov is the U.S. government's official web portal to all federal, state and local government web resources and services.